createdAt,value
2023-01-29T00:01:54.793Z,9.50
2023-01-29T00:04:21.858Z,9.30
2023-01-29T00:06:48.867Z,8.50
2023-01-29T00:09:15.807Z,8.50
2023-01-29T00:11:42.704Z,8.40
2023-01-29T00:14:09.693Z,8.50
2023-01-29T00:16:36.593Z,8.50
2023-01-29T00:19:03.897Z,8.50
2023-01-29T00:21:32.191Z,8.80
2023-01-29T00:23:59.931Z,8.60
2023-01-29T00:26:27.200Z,7.70
2023-01-29T00:28:54.206Z,7.60
2023-01-29T00:31:23.761Z,7.70
2023-01-29T00:33:50.694Z,7.70
2023-01-29T00:36:18.719Z,7.10
2023-01-29T00:38:46.487Z,7.40
2023-01-29T00:41:32.987Z,6.90
2023-01-29T00:44:19.274Z,6.40
2023-01-29T00:46:46.349Z,6.90
2023-01-29T00:49:13.679Z,6.60
2023-01-29T00:51:41.588Z,6.00
2023-01-29T00:54:11.035Z,6.10
2023-01-29T00:56:39.195Z,6.60
2023-01-29T00:59:06.383Z,6.50
2023-01-29T01:01:50.714Z,6.20
2023-01-29T01:04:17.749Z,6.50
2023-01-29T01:06:44.910Z,6.00
2023-01-29T01:09:30.743Z,6.40
2023-01-29T01:11:57.656Z,6.50
2023-01-29T01:14:25.416Z,6.30
2023-01-29T01:16:52.355Z,6.30
2023-01-29T01:19:19.440Z,6.70
2023-01-29T01:21:48.390Z,6.30
2023-01-29T01:24:16.038Z,6.60
2023-01-29T01:26:43.575Z,6.70
2023-01-29T01:29:10.500Z,6.30
2023-01-29T01:31:37.574Z,6.80
2023-01-29T01:34:04.708Z,6.80
2023-01-29T01:36:32.407Z,7.00
2023-01-29T01:38:59.427Z,6.90
2023-01-29T01:41:27.553Z,7.20
2023-01-29T01:43:57.557Z,7.40
2023-01-29T01:46:27.627Z,7.80
2023-01-29T01:48:59.810Z,7.80
2023-01-29T01:51:29.973Z,8.20
2023-01-29T01:54:02.674Z,8.10
2023-01-29T01:56:38.605Z,8.10
2023-01-29T01:59:07.011Z,8.30
2023-01-29T02:01:34.416Z,8.20
2023-01-29T02:04:22.624Z,8.60
2023-01-29T02:07:08.287Z,8.90
2023-01-29T02:09:40.426Z,8.60
2023-01-29T02:12:09.994Z,9.80
2023-01-29T02:14:40.279Z,9.50
2023-01-29T02:17:07.746Z,9.90
2023-01-29T02:19:45.733Z,10.00
2023-01-29T02:22:30.688Z,9.60
2023-01-29T02:25:12.204Z,10.10
2023-01-29T02:27:58.990Z,9.70
2023-01-29T02:30:34.666Z,10.20
2023-01-29T02:33:07.715Z,10.00
2023-01-29T02:35:42.671Z,10.30
2023-01-29T02:38:18.963Z,9.60
2023-01-29T02:40:51.977Z,9.80
2023-01-29T02:43:30.351Z,9.80
2023-01-29T02:46:07.429Z,10.60
2023-01-29T02:48:44.731Z,11.60
2023-01-29T02:51:20.287Z,9.90
2023-01-29T02:53:55.103Z,7.70
2023-01-29T02:56:29.035Z,9.90
2023-01-29T02:59:01.539Z,10.80
2023-01-29T03:01:34.800Z,10.70
2023-01-29T03:04:08.101Z,10.40
2023-01-29T03:06:40.120Z,10.30
2023-01-29T03:09:12.333Z,10.00
2023-01-29T03:11:43.563Z,10.10
2023-01-29T03:14:14.430Z,9.30
2023-01-29T03:16:46.956Z,9.20
2023-01-29T03:19:17.763Z,10.00
2023-01-29T03:21:55.460Z,10.30
2023-01-29T03:24:45.400Z,10.20
2023-01-29T03:27:33.811Z,9.80
2023-01-29T03:30:20.505Z,10.30
2023-01-29T03:32:52.457Z,9.40
2023-01-29T03:35:36.866Z,9.80
2023-01-29T03:38:07.477Z,10.20
2023-01-29T03:40:44.365Z,9.90
2023-01-29T03:43:16.223Z,9.80
2023-01-29T03:45:58.134Z,10.10
2023-01-29T03:48:35.026Z,9.30
2023-01-29T03:51:10.560Z,9.50
2023-01-29T03:53:46.155Z,9.30
2023-01-29T03:56:26.627Z,9.40
2023-01-29T03:58:58.529Z,9.20
2023-01-29T04:01:34.382Z,9.40
2023-01-29T04:04:10.313Z,9.10
2023-01-29T04:06:41.859Z,8.10
2023-01-29T04:09:14.952Z,9.20
2023-01-29T04:11:49.392Z,8.60
2023-01-29T04:14:17.540Z,9.50
2023-01-29T04:16:48.760Z,8.50
2023-01-29T04:19:31.358Z,8.80
2023-01-29T04:22:06.596Z,8.50
2023-01-29T04:24:34.718Z,8.50
2023-01-29T04:27:17.778Z,8.30
2023-01-29T04:29:58.593Z,8.60
2023-01-29T04:32:33.186Z,8.30
2023-01-29T04:35:17.994Z,8.70
2023-01-29T04:37:51.841Z,7.90
2023-01-29T04:40:27.111Z,7.50
2023-01-29T04:43:05.271Z,8.30
2023-01-29T04:45:41.700Z,8.20
2023-01-29T04:48:18.353Z,7.90
2023-01-29T04:53:20.615Z,8.00
2023-01-29T04:55:51.066Z,8.60
2023-01-29T04:58:31.482Z,8.60
2023-01-29T05:01:00.049Z,8.50
2023-01-29T05:03:29.597Z,8.60
2023-01-29T05:05:59.310Z,8.60
2023-01-29T05:08:29.309Z,8.60
2023-01-29T05:10:58.179Z,9.00
2023-01-29T05:13:26.994Z,9.00
2023-01-29T05:15:58.967Z,8.40
2023-01-29T05:18:25.999Z,9.20
2023-01-29T05:20:57.670Z,9.40
2023-01-29T05:23:25.325Z,9.30
2023-01-29T05:25:53.097Z,9.20
2023-01-29T05:28:20.536Z,9.40
2023-01-29T05:30:49.646Z,10.00
2023-01-29T05:33:18.389Z,9.30
2023-01-29T05:35:45.662Z,9.80
2023-01-29T05:38:13.150Z,9.80
2023-01-29T05:40:40.700Z,10.30
2023-01-29T05:43:15.115Z,10.10
2023-01-29T05:45:41.867Z,10.90
2023-01-29T05:48:08.852Z,10.10
2023-01-29T05:50:36.181Z,10.50
2023-01-29T05:53:04.148Z,9.90
2023-01-29T05:55:31.525Z,9.90
2023-01-29T05:57:58.739Z,10.60
2023-01-29T06:00:25.988Z,10.20
2023-01-29T06:02:53.047Z,10.60
2023-01-29T06:05:20.035Z,10.60
2023-01-29T06:07:47.102Z,10.30
2023-01-29T06:10:16.129Z,11.10
2023-01-29T06:12:43.430Z,10.40
2023-01-29T06:15:13.454Z,9.90
2023-01-29T06:17:40.371Z,10.40
2023-01-29T06:20:09.642Z,10.90
2023-01-29T06:22:36.840Z,10.90
2023-01-29T06:25:04.400Z,10.20
2023-01-29T06:27:31.209Z,10.50
2023-01-29T06:29:58.142Z,11.00
2023-01-29T06:32:25.215Z,11.10
2023-01-29T06:34:53.470Z,10.50
2023-01-29T06:37:20.737Z,11.70
2023-01-29T06:39:47.742Z,11.30
2023-01-29T06:42:14.541Z,11.40
2023-01-29T06:44:41.339Z,11.60
2023-01-29T06:47:08.625Z,11.60
2023-01-29T06:49:35.456Z,11.70
2023-01-29T06:52:02.483Z,11.40
2023-01-29T06:54:29.514Z,12.40
2023-01-29T06:56:56.468Z,12.00
2023-01-29T06:59:23.249Z,12.10
2023-01-29T07:01:50.400Z,11.60
2023-01-29T07:04:17.327Z,11.80
2023-01-29T07:06:44.176Z,11.40
2023-01-29T07:09:12.518Z,11.60
2023-01-29T07:11:39.568Z,12.40
2023-01-29T07:14:06.376Z,11.00
2023-01-29T07:16:34.100Z,11.20
2023-01-29T07:19:01.130Z,11.80
2023-01-29T07:21:28.261Z,11.30
2023-01-29T07:23:55.299Z,11.10
2023-01-29T07:26:22.344Z,11.10
2023-01-29T07:28:55.426Z,11.00
2023-01-29T07:31:26.542Z,10.40
2023-01-29T07:33:53.541Z,11.10
2023-01-29T07:36:20.480Z,10.50
2023-01-29T07:38:52.093Z,10.40
2023-01-29T07:41:19.534Z,10.60
2023-01-29T07:43:46.731Z,10.20
2023-01-29T07:46:13.858Z,10.20
2023-01-29T07:48:40.835Z,11.00
2023-01-29T07:51:08.589Z,11.30
2023-01-29T07:53:36.174Z,10.90
2023-01-29T07:56:03.416Z,10.60
2023-01-29T07:58:30.475Z,10.70
2023-01-29T08:00:57.764Z,11.40
2023-01-29T08:03:24.550Z,10.40
2023-01-29T08:05:51.474Z,11.50
2023-01-29T08:08:19.450Z,10.80
2023-01-29T08:10:46.369Z,10.00
2023-01-29T08:13:13.439Z,11.50
2023-01-29T08:15:40.229Z,11.60
2023-01-29T08:18:07.576Z,10.50
2023-01-29T08:20:35.034Z,10.70
2023-01-29T08:23:06.169Z,11.00
2023-01-29T08:25:33.728Z,10.40
2023-01-29T08:28:01.741Z,10.50
2023-01-29T08:30:29.933Z,10.80
2023-01-29T08:32:56.838Z,10.50
2023-01-29T08:35:24.583Z,9.90
2023-01-29T08:37:56.505Z,10.70
2023-01-29T08:40:23.779Z,10.70
2023-01-29T08:42:50.574Z,10.80
2023-01-29T08:45:18.300Z,10.00
2023-01-29T08:47:49.753Z,9.90
2023-01-29T08:50:17.661Z,9.60
2023-01-29T08:52:45.138Z,10.70
2023-01-29T08:55:13.150Z,10.80
2023-01-29T08:57:40.424Z,10.30
2023-01-29T09:00:09.398Z,10.20
2023-01-29T09:02:36.467Z,9.50
2023-01-29T09:05:03.431Z,10.00
2023-01-29T09:07:31.582Z,8.70
2023-01-29T09:09:58.452Z,9.90
2023-01-29T09:12:25.390Z,9.60
2023-01-29T09:14:52.500Z,9.40
2023-01-29T09:17:19.585Z,9.30
2023-01-29T09:19:46.360Z,8.90
2023-01-29T09:22:13.336Z,9.80
2023-01-29T09:24:40.801Z,10.10
2023-01-29T09:27:07.961Z,10.00
2023-01-29T09:29:37.627Z,9.80
2023-01-29T09:32:04.974Z,9.90
2023-01-29T09:34:33.693Z,10.70
2023-01-29T09:37:00.502Z,10.20
2023-01-29T09:39:27.656Z,10.40
2023-01-29T09:42:01.029Z,10.20
2023-01-29T09:44:35.009Z,10.40
2023-01-29T09:47:05.234Z,10.30
2023-01-29T09:49:37.916Z,9.90
2023-01-29T09:52:12.038Z,10.30
2023-01-29T09:54:49.916Z,9.30
2023-01-29T09:57:23.335Z,10.20
2023-01-29T09:59:50.713Z,10.00
2023-01-29T10:02:37.546Z,9.40
2023-01-29T10:05:24.533Z,10.30
2023-01-29T10:08:34.156Z,9.70
2023-01-29T10:11:08.499Z,10.50
2023-01-29T10:13:49.420Z,10.10
2023-01-29T10:16:29.100Z,9.80
2023-01-29T10:19:34.341Z,10.40
2023-01-29T10:22:14.147Z,10.50
2023-01-29T10:24:45.896Z,11.30
2023-01-29T10:27:18.299Z,11.40
2023-01-29T10:29:48.672Z,10.70
2023-01-29T10:32:19.331Z,11.90
2023-01-29T10:34:51.379Z,11.00
2023-01-29T10:37:21.802Z,10.70
2023-01-29T10:39:48.734Z,10.50
2023-01-29T10:42:30.643Z,11.20
2023-01-29T10:45:20.673Z,11.50
2023-01-29T10:48:04.926Z,11.20
2023-01-29T10:50:42.882Z,10.80
2023-01-29T10:53:28.559Z,10.80
2023-01-29T10:56:10.750Z,11.80
2023-01-29T10:58:49.798Z,11.50
2023-01-29T11:01:17.651Z,12.10
2023-01-29T11:03:45.064Z,11.40
2023-01-29T11:06:17.850Z,11.20
2023-01-29T11:08:52.910Z,11.50
2023-01-29T11:11:22.498Z,12.00
2023-01-29T11:13:57.282Z,11.80
2023-01-29T11:16:24.290Z,11.70
2023-01-29T11:19:00.374Z,12.30
2023-01-29T11:21:29.577Z,12.00
2023-01-29T11:24:12.804Z,12.10
2023-01-29T11:26:42.194Z,12.30
2023-01-29T11:29:38.740Z,11.80
2023-01-29T11:32:07.958Z,11.60
2023-01-29T11:34:34.812Z,11.30
2023-01-29T11:37:03.555Z,11.60
2023-01-29T11:39:32.186Z,12.10
2023-01-29T11:42:01.679Z,12.90
2023-01-29T11:44:36.761Z,11.60
2023-01-29T11:47:14.458Z,12.40
2023-01-29T11:49:46.068Z,12.70
2023-01-29T11:52:15.683Z,12.60
2023-01-29T11:54:50.697Z,12.10
2023-01-29T11:57:36.692Z,12.50
2023-01-29T12:00:07.926Z,12.70
2023-01-29T12:02:40.207Z,13.00
2023-01-29T12:05:16.340Z,12.90
2023-01-29T12:07:45.818Z,13.00
2023-01-29T12:10:33.707Z,12.10
2023-01-29T12:13:20.341Z,12.80
2023-01-29T12:15:48.367Z,13.20
2023-01-29T12:18:24.149Z,13.70
2023-01-29T12:20:58.938Z,13.50
2023-01-29T12:23:36.608Z,13.60
2023-01-29T12:26:10.888Z,13.70
2023-01-29T12:28:47.814Z,13.30
2023-01-29T12:31:30.824Z,13.30
2023-01-29T12:34:04.215Z,13.90
2023-01-29T12:36:37.673Z,13.20
2023-01-29T12:39:05.061Z,13.80
2023-01-29T12:41:45.096Z,14.40
2023-01-29T12:44:19.478Z,13.80
2023-01-29T12:46:52.985Z,15.20
2023-01-29T12:49:24.382Z,14.50
2023-01-29T12:51:59.233Z,14.30
2023-01-29T12:54:33.534Z,14.40
2023-01-29T12:57:05.073Z,13.90
2023-01-29T12:59:38.173Z,15.00
2023-01-29T13:02:16.189Z,14.70
2023-01-29T13:04:47.866Z,15.30
2023-01-29T13:07:23.925Z,15.50
2023-01-29T13:09:56.661Z,15.40
2023-01-29T13:12:27.101Z,15.30
2023-01-29T13:15:01.627Z,16.10
2023-01-29T13:17:33.916Z,16.30
2023-01-29T13:20:06.451Z,17.00
2023-01-29T13:22:38.178Z,17.10
2023-01-29T13:25:06.747Z,16.30
2023-01-29T13:27:36.320Z,16.00
2023-01-29T13:30:04.472Z,17.00
2023-01-29T13:32:36.289Z,16.30
2023-01-29T13:35:07.951Z,17.60
2023-01-29T13:37:41.013Z,17.30
2023-01-29T13:40:20.654Z,17.30
2023-01-29T13:42:50.517Z,18.30
2023-01-29T13:45:24.807Z,17.10
2023-01-29T13:47:53.610Z,18.30
2023-01-29T13:50:31.282Z,17.50
2023-01-29T13:53:02.163Z,17.80
2023-01-29T13:55:32.707Z,17.40
2023-01-29T13:58:01.389Z,18.00
2023-01-29T14:01:01.665Z,17.90
2023-01-29T14:04:03.657Z,18.70
2023-01-29T14:06:45.617Z,19.50
2023-01-29T14:09:57.333Z,19.60
2023-01-29T14:12:51.719Z,19.90
2023-01-29T14:15:30.827Z,20.90
2023-01-29T14:18:25.355Z,20.80
2023-01-29T14:21:07.041Z,20.80
2023-01-29T14:23:51.525Z,21.00
2023-01-29T14:26:34.409Z,21.30
2023-01-29T14:29:06.220Z,20.30
2023-01-29T14:31:38.548Z,21.20
2023-01-29T14:34:09.201Z,19.10
2023-01-29T14:36:43.546Z,19.60
2023-01-29T14:39:25.411Z,20.30
2023-01-29T14:41:54.185Z,20.40
2023-01-29T14:44:58.232Z,20.50
2023-01-29T14:47:55.623Z,19.90
2023-01-29T14:50:49.024Z,19.80
2023-01-29T14:53:22.325Z,20.60
2023-01-29T14:55:55.879Z,20.30
2023-01-29T14:58:29.297Z,21.40
2023-01-29T15:00:59.765Z,21.40
2023-01-29T15:03:37.513Z,21.50
2023-01-29T15:06:05.715Z,19.50
2023-01-29T15:08:40.503Z,19.50
2023-01-29T15:11:33.131Z,20.60
2023-01-29T15:14:23.835Z,20.10
2023-01-29T15:17:00.668Z,20.40
2023-01-29T15:19:35.673Z,21.00
2023-01-29T15:24:38.174Z,19.30
2023-01-29T15:27:07.684Z,19.10
2023-01-29T15:29:35.189Z,19.10
2023-01-29T15:32:04.255Z,19.20
2023-01-29T15:34:31.646Z,18.70
2023-01-29T15:36:59.117Z,18.20
2023-01-29T15:39:28.566Z,19.20
2023-01-29T15:42:13.424Z,18.40
2023-01-29T15:44:47.573Z,19.20
2023-01-29T15:47:17.670Z,19.20
2023-01-29T15:49:47.712Z,19.00
2023-01-29T15:52:21.885Z,18.90
2023-01-29T15:55:02.324Z,19.10
2023-01-29T15:57:37.420Z,19.50
2023-01-29T16:00:05.245Z,20.40
2023-01-29T16:02:42.846Z,19.70
2023-01-29T16:05:15.811Z,21.10
2023-01-29T16:07:43.854Z,21.30
2023-01-29T16:10:18.295Z,23.20
2023-01-29T16:12:47.565Z,23.00
2023-01-29T16:15:22.626Z,23.70
2023-01-29T16:17:50.887Z,24.40
2023-01-29T16:20:34.763Z,23.40
2023-01-29T16:23:02.413Z,23.90
2023-01-29T16:25:31.326Z,24.40
2023-01-29T16:27:58.767Z,23.60
2023-01-29T16:30:29.015Z,23.70
2023-01-29T16:33:01.737Z,24.00
2023-01-29T16:35:28.924Z,23.30
2023-01-29T16:38:04.352Z,23.70
2023-01-29T16:40:33.570Z,24.10
2023-01-29T16:43:22.844Z,24.40
2023-01-29T16:46:04.819Z,23.90
2023-01-29T16:48:34.792Z,25.60
2023-01-29T16:51:13.632Z,25.20
2023-01-29T16:53:40.932Z,26.00
2023-01-29T16:56:10.143Z,25.50
2023-01-29T16:58:37.483Z,26.30
2023-01-29T17:01:09.041Z,26.00
2023-01-29T17:03:37.324Z,25.40
2023-01-29T17:06:14.598Z,25.10
2023-01-29T17:08:44.217Z,25.50
2023-01-29T17:11:12.776Z,26.10
2023-01-29T17:13:43.021Z,26.60
2023-01-29T17:16:27.880Z,27.10
2023-01-29T17:18:55.991Z,27.80
2023-01-29T17:21:24.897Z,26.40
2023-01-29T17:23:51.872Z,26.30
2023-01-29T17:26:19.163Z,27.60
2023-01-29T17:28:47.081Z,25.90
2023-01-29T17:31:13.991Z,26.50
2023-01-29T17:33:44.239Z,26.60
2023-01-29T17:36:14.695Z,26.90
2023-01-29T17:38:42.187Z,27.30
2023-01-29T17:41:13.379Z,25.50
2023-01-29T17:43:40.241Z,27.20
2023-01-29T17:46:07.688Z,25.30
2023-01-29T17:48:34.796Z,25.90
2023-01-29T17:51:04.605Z,24.80
2023-01-29T17:53:45.241Z,25.40
2023-01-29T17:56:21.820Z,25.90
2023-01-29T17:58:48.794Z,24.80
2023-01-29T18:01:15.681Z,25.80
2023-01-29T18:03:42.674Z,25.00
2023-01-29T18:06:12.565Z,24.80
2023-01-29T18:08:40.863Z,24.40
2023-01-29T18:11:08.111Z,24.20
2023-01-29T18:13:36.531Z,24.70
2023-01-29T18:16:03.508Z,23.80
2023-01-29T18:18:30.824Z,25.10
2023-01-29T18:20:57.708Z,24.30
2023-01-29T18:23:24.766Z,24.10
2023-01-29T18:25:52.791Z,25.60
2023-01-29T18:28:20.409Z,24.50
2023-01-29T18:30:48.023Z,24.20
2023-01-29T18:33:15.585Z,24.60
2023-01-29T18:35:44.241Z,23.70
2023-01-29T18:38:11.048Z,23.70
2023-01-29T18:40:38.047Z,23.90
2023-01-29T18:43:05.455Z,23.80
2023-01-29T18:45:32.609Z,23.20
2023-01-29T18:47:59.951Z,24.10
2023-01-29T18:50:27.544Z,23.60
2023-01-29T18:52:55.416Z,24.30
2023-01-29T18:55:22.682Z,24.20
2023-01-29T18:58:28.307Z,25.10
2023-01-29T19:00:40.394Z,24.80
2023-01-29T19:03:07.592Z,25.80
2023-01-29T19:05:37.516Z,24.40
2023-01-29T19:08:12.536Z,24.10
2023-01-29T19:10:40.622Z,24.50
2023-01-29T19:13:07.760Z,24.30
2023-01-29T19:15:35.817Z,25.30
2023-01-29T19:18:04.284Z,24.50
2023-01-29T19:20:31.082Z,24.70
2023-01-29T19:22:58.227Z,26.10
2023-01-29T19:25:25.133Z,24.40
2023-01-29T19:27:52.121Z,25.80
2023-01-29T19:30:20.233Z,25.00
2023-01-29T19:32:47.911Z,25.70
2023-01-29T19:35:14.777Z,26.10
2023-01-29T19:37:41.968Z,24.60
2023-01-29T19:40:10.800Z,25.00
2023-01-29T19:42:38.507Z,25.00
2023-01-29T19:45:10.162Z,24.80
2023-01-29T19:47:41.476Z,25.20
2023-01-29T19:50:10.329Z,24.30
2023-01-29T19:52:50.876Z,25.20
2023-01-29T19:55:19.717Z,26.00
2023-01-29T19:57:47.510Z,27.20
2023-01-29T20:00:17.556Z,25.50
2023-01-29T20:02:44.733Z,26.30
2023-01-29T20:05:13.373Z,25.90
2023-01-29T20:07:42.392Z,26.10
2023-01-29T20:10:18.246Z,27.50
2023-01-29T20:12:46.344Z,26.50
2023-01-29T20:15:13.627Z,27.30
2023-01-29T20:17:40.964Z,25.90
2023-01-29T20:20:09.454Z,25.80
2023-01-29T20:22:36.722Z,25.10
2023-01-29T20:25:03.567Z,25.10
2023-01-29T20:27:31.757Z,24.40
2023-01-29T20:29:59.789Z,24.90
2023-01-29T20:32:26.735Z,24.90
2023-01-29T20:34:53.525Z,23.90
2023-01-29T20:37:20.540Z,23.10
2023-01-29T20:39:47.596Z,22.90
2023-01-29T20:42:14.523Z,22.20
2023-01-29T20:44:42.069Z,22.30
2023-01-29T20:47:09.699Z,23.40
2023-01-29T20:49:36.908Z,21.90
2023-01-29T20:52:03.927Z,22.70
2023-01-29T20:54:33.375Z,22.30
2023-01-29T20:57:00.392Z,22.70
2023-01-29T20:59:29.120Z,22.50
2023-01-29T21:01:56.786Z,21.50
2023-01-29T21:04:24.060Z,22.00
2023-01-29T21:06:51.125Z,22.60
2023-01-29T21:09:18.073Z,22.50
2023-01-29T21:11:45.931Z,22.00
2023-01-29T21:14:14.229Z,24.50
2023-01-29T21:16:41.703Z,23.80
2023-01-29T21:19:08.549Z,22.70
2023-01-29T21:21:37.784Z,22.10
2023-01-29T21:24:05.035Z,21.80
2023-01-29T21:26:32.025Z,23.00
2023-01-29T21:28:59.490Z,23.60
2023-01-29T21:31:26.658Z,22.70
2023-01-29T21:33:53.497Z,22.60
2023-01-29T21:36:20.702Z,23.70
2023-01-29T21:38:47.541Z,23.90
2023-01-29T21:41:14.519Z,23.60
2023-01-29T21:43:41.836Z,24.00
2023-01-29T21:46:12.517Z,22.50
2023-01-29T21:48:39.983Z,24.40
2023-01-29T21:51:07.883Z,24.30
2023-01-29T21:53:35.169Z,24.00
2023-01-29T21:56:04.017Z,24.70
2023-01-29T21:58:30.944Z,24.80
2023-01-29T22:01:36.128Z,24.80
2023-01-29T22:03:47.386Z,25.00
2023-01-29T22:06:14.745Z,24.40
2023-01-29T22:08:41.571Z,25.30
2023-01-29T22:11:10.224Z,24.20
2023-01-29T22:13:37.684Z,24.40
2023-01-29T22:16:06.069Z,24.60
2023-01-29T22:18:32.944Z,24.70
2023-01-29T22:21:02.669Z,23.50
2023-01-29T22:23:29.968Z,23.90
2023-01-29T22:26:03.096Z,25.30
2023-01-29T22:28:30.018Z,24.50
2023-01-29T22:31:01.126Z,25.40
2023-01-29T22:33:28.066Z,26.30
2023-01-29T22:35:57.915Z,25.00
2023-01-29T22:38:24.784Z,25.00
2023-01-29T22:40:53.656Z,24.10
2023-01-29T22:43:25.956Z,25.50
2023-01-29T22:45:53.063Z,24.00
2023-01-29T22:48:20.559Z,25.40
2023-01-29T22:50:53.939Z,26.10
2023-01-29T22:53:24.096Z,26.10
2023-01-29T22:55:57.281Z,26.40
2023-01-29T22:58:24.354Z,25.00
2023-01-29T23:00:53.564Z,25.30
2023-01-29T23:03:20.474Z,25.70
2023-01-29T23:05:47.308Z,25.90
2023-01-29T23:08:14.660Z,24.70
2023-01-29T23:10:43.223Z,25.90
2023-01-29T23:13:09.980Z,26.00
2023-01-29T23:15:36.826Z,25.70
2023-01-29T23:18:03.680Z,25.50
2023-01-29T23:20:30.593Z,25.40
2023-01-29T23:22:57.625Z,25.00
2023-01-29T23:25:44.889Z,23.40
2023-01-29T23:30:37.358Z,23.30
2023-01-29T23:33:04.620Z,23.00
2023-01-29T23:35:31.639Z,22.20
2023-01-29T23:37:58.893Z,21.80
2023-01-29T23:40:25.698Z,21.80
2023-01-29T23:42:52.567Z,22.00
2023-01-29T23:45:19.309Z,21.50
2023-01-29T23:47:46.199Z,20.90
2023-01-29T23:50:14.734Z,20.30
2023-01-29T23:52:41.661Z,21.10
2023-01-29T23:55:10.596Z,19.50
2023-01-29T23:57:37.776Z,19.70
